sensor_id;sensor_type;location;lat;lon;timestamp;pressure;altitude;pressure_sealevel;temperature;humidity
19526;BME280;9907;42.676;26.348;2023-12-20T04:04:04;99067.75;;;3.53;93.69
19526;BME280;9907;42.676;26.348;2023-12-20T04:06:30;99065.38;;;3.49;93.96
19526;BME280;9907;42.676;26.348;2023-12-20T04:08:55;99063.78;;;3.46;93.96
19526;BME280;9907;42.676;26.348;2023-12-20T04:11:21;99060.53;;;3.41;94.41
19526;BME280;9907;42.676;26.348;2023-12-20T04:13:46;99059.88;;;3.37;94.47
19526;BME280;9907;42.676;26.348;2023-12-20T04:16:11;99052.81;;;3.38;94.38
19526;BME280;9907;42.676;26.348;2023-12-20T04:18:37;99055.84;;;3.32;94.66
19526;BME280;9907;42.676;26.348;2023-12-20T04:21:02;99050.91;;;3.26;95.35
19526;BME280;9907;42.676;26.348;2023-12-20T04:23:28;99053.34;;;3.29;95.22
19526;BME280;9907;42.676;26.348;2023-12-20T04:25:54;99046.47;;;3.26;95.30
19526;BME280;9907;42.676;26.348;2023-12-20T04:28:19;99042.25;;;3.24;95.42
19526;BME280;9907;42.676;26.348;2023-12-20T04:30:45;99045.34;;;3.30;95.38
19526;BME280;9907;42.676;26.348;2023-12-20T04:33:10;99046.41;;;3.28;94.63
19526;BME280;9907;42.676;26.348;2023-12-20T04:35:36;99048.56;;;3.35;94.58
19526;BME280;9907;42.676;26.348;2023-12-20T04:38:02;99042.06;;;3.27;94.99
19526;BME280;9907;42.676;26.348;2023-12-20T04:40:27;99032.59;;;3.23;95.25
19526;BME280;9907;42.676;26.348;2023-12-20T04:42:54;99029.31;;;3.19;95.49
19526;BME280;9907;42.676;26.348;2023-12-20T04:45:19;99031.19;;;3.17;95.65
19526;BME280;9907;42.676;26.348;2023-12-20T04:47:45;99028.31;;;3.36;94.59
19526;BME280;9907;42.676;26.348;2023-12-20T04:50:12;99026.22;;;3.55;93.36
19526;BME280;9907;42.676;26.348;2023-12-20T04:52:38;99033.59;;;3.64;91.79
19526;BME280;9907;42.676;26.348;2023-12-20T04:55:04;99034.25;;;3.39;93.10
19526;BME280;9907;42.676;26.348;2023-12-20T04:57:32;99028.41;;;3.49;95.66
19526;BME280;9907;42.676;26.348;2023-12-20T04:59:57;99023.41;;;3.72;93.94
19526;BME280;9907;42.676;26.348;2023-12-20T05:02:23;99017.34;;;3.84;91.83
19526;BME280;9907;42.676;26.348;2023-12-20T05:04:48;99017.94;;;3.75;90.90
19526;BME280;9907;42.676;26.348;2023-12-20T05:07:14;99018.19;;;3.85;90.15
19526;BME280;9907;42.676;26.348;2023-12-20T05:09:39;99015.47;;;3.86;89.25
19526;BME280;9907;42.676;26.348;2023-12-20T05:12:05;99016.22;;;3.60;90.76
19526;BME280;9907;42.676;26.348;2023-12-20T05:14:31;99018.75;;;3.48;92.67
19526;BME280;9907;42.676;26.348;2023-12-20T05:16:56;99016.59;;;3.40;92.73
19526;BME280;9907;42.676;26.348;2023-12-20T05:19:22;99024.16;;;3.60;92.46
19526;BME280;9907;42.676;26.348;2023-12-20T05:21:48;99023.88;;;3.51;92.02
19526;BME280;9907;42.676;26.348;2023-12-20T05:24:13;99013.47;;;3.48;92.28
19526;BME280;9907;42.676;26.348;2023-12-20T05:26:40;99014.16;;;3.51;92.22
19526;BME280;9907;42.676;26.348;2023-12-20T05:29:05;99009.16;;;3.47;92.64
19526;BME280;9907;42.676;26.348;2023-12-20T05:31:31;99009.81;;;3.36;93.31
19526;BME280;9907;42.676;26.348;2023-12-20T05:33:57;99008.13;;;3.35;93.73
19526;BME280;9907;42.676;26.348;2023-12-20T05:36:22;99008.84;;;3.37;93.14
19526;BME280;9907;42.676;26.348;2023-12-20T05:38:48;99006.59;;;3.45;92.82
19526;BME280;9907;42.676;26.348;2023-12-20T05:41:13;99005.66;;;3.74;91.69
19526;BME280;9907;42.676;26.348;2023-12-20T05:43:39;99005.78;;;3.73;90.29
19526;BME280;9907;42.676;26.348;2023-12-20T05:46:05;99000.59;;;3.57;91.41
19526;BME280;9907;42.676;26.348;2023-12-20T05:48:30;99002.56;;;3.54;92.35
19526;BME280;9907;42.676;26.348;2023-12-20T05:50:56;99003.13;;;3.44;93.16
19526;BME280;9907;42.676;26.348;2023-12-20T05:53:21;98998.03;;;3.41;93.83
19526;BME280;9907;42.676;26.348;2023-12-20T05:55:47;99002.44;;;3.41;93.86
19526;BME280;9907;42.676;26.348;2023-12-20T05:58:12;99003.78;;;3.48;93.30
19526;BME280;9907;42.676;26.348;2023-12-20T06:00:38;99003.56;;;3.51;93.53
19526;BME280;9907;42.676;26.348;2023-12-20T06:03:03;98995.38;;;3.56;93.45
19526;BME280;9907;42.676;26.348;2023-12-20T06:05:30;98999.84;;;3.69;93.16
19526;BME280;9907;42.676;26.348;2023-12-20T06:07:56;98997.16;;;3.83;92.57
19526;BME280;9907;42.676;26.348;2023-12-20T06:10:27;98990.81;;;4.00;91.46
19526;BME280;9907;42.676;26.348;2023-12-20T06:12:52;98988.03;;;4.16;90.77
19526;BME280;9907;42.676;26.348;2023-12-20T06:15:18;98982.34;;;4.22;90.18
19526;BME280;9907;42.676;26.348;2023-12-20T06:17:43;98975.13;;;4.38;90.27
19526;BME280;9907;42.676;26.348;2023-12-20T06:20:09;98979.94;;;4.58;89.54
19526;BME280;9907;42.676;26.348;2023-12-20T06:22:35;98985.19;;;4.72;88.48
19526;BME280;9907;42.676;26.348;2023-12-20T06:25:02;98978.00;;;4.87;88.61
19526;BME280;9907;42.676;26.348;2023-12-20T06:27:28;98971.88;;;4.99;88.06
19526;BME280;9907;42.676;26.348;2023-12-20T06:29:54;98969.56;;;5.20;87.46
19526;BME280;9907;42.676;26.348;2023-12-20T06:32:19;98974.97;;;5.31;85.06
19526;BME280;9907;42.676;26.348;2023-12-20T06:34:45;98968.06;;;5.41;84.17
19526;BME280;9907;42.676;26.348;2023-12-20T06:37:10;98972.63;;;5.52;84.39
19526;BME280;9907;42.676;26.348;2023-12-20T06:39:36;98968.72;;;5.57;84.86
19526;BME280;9907;42.676;26.348;2023-12-20T06:42:01;98967.19;;;5.66;84.38
19526;BME280;9907;42.676;26.348;2023-12-20T06:44:27;98963.34;;;5.82;83.62
19526;BME280;9907;42.676;26.348;2023-12-20T06:46:52;98960.38;;;6.00;82.31
19526;BME280;9907;42.676;26.348;2023-12-20T06:49:17;98955.88;;;6.13;81.89
19526;BME280;9907;42.676;26.348;2023-12-20T06:51:44;98950.66;;;6.24;81.45
19526;BME280;9907;42.676;26.348;2023-12-20T06:54:10;98942.91;;;6.45;81.84
19526;BME280;9907;42.676;26.348;2023-12-20T06:56:35;98952.03;;;6.64;80.24
19526;BME280;9907;42.676;26.348;2023-12-20T06:59:01;98953.88;;;6.75;80.05
19526;BME280;9907;42.676;26.348;2023-12-20T07:01:26;98949.59;;;6.96;80.16
19526;BME280;9907;42.676;26.348;2023-12-20T07:03:51;98942.53;;;7.19;78.77
19526;BME280;9907;42.676;26.348;2023-12-20T07:06:17;98941.81;;;7.39;78.34
19526;BME280;9907;42.676;26.348;2023-12-20T07:08:43;98936.88;;;7.46;77.16
19526;BME280;9907;42.676;26.348;2023-12-20T07:11:08;98934.94;;;7.59;75.94
19526;BME280;9907;42.676;26.348;2023-12-20T07:13:33;98937.13;;;7.65;74.65
19526;BME280;9907;42.676;26.348;2023-12-20T07:15:59;98933.38;;;7.78;73.05
19526;BME280;9907;42.676;26.348;2023-12-20T07:18:24;98932.50;;;7.89;73.08
19526;BME280;9907;42.676;26.348;2023-12-20T07:20:50;98929.06;;;8.09;71.89
19526;BME280;9907;42.676;26.348;2023-12-20T07:23:17;98923.47;;;8.35;70.39
19526;BME280;9907;42.676;26.348;2023-12-20T07:25:44;98926.84;;;8.37;70.29
19526;BME280;9907;42.676;26.348;2023-12-20T07:28:10;98930.06;;;8.51;70.01
19526;BME280;9907;42.676;26.348;2023-12-20T07:30:35;98929.63;;;8.67;69.18
19526;BME280;9907;42.676;26.348;2023-12-20T07:33:01;98927.19;;;8.75;69.07
19526;BME280;9907;42.676;26.348;2023-12-20T07:35:27;98925.47;;;8.95;68.17
19526;BME280;9907;42.676;26.348;2023-12-20T07:37:53;98917.00;;;9.01;67.19
19526;BME280;9907;42.676;26.348;2023-12-20T07:40:18;98919.72;;;9.10;67.77
19526;BME280;9907;42.676;26.348;2023-12-20T07:42:44;98913.72;;;9.18;66.92
19526;BME280;9907;42.676;26.348;2023-12-20T07:45:10;98912.69;;;9.30;66.57
19526;BME280;9907;42.676;26.348;2023-12-20T07:47:38;98913.88;;;9.47;66.23
19526;BME280;9907;42.676;26.348;2023-12-20T07:50:04;98900.72;;;9.55;66.83
19526;BME280;9907;42.676;26.348;2023-12-20T07:52:29;98917.19;;;9.39;68.21
19526;BME280;9907;42.676;26.348;2023-12-20T07:54:55;98919.19;;;9.47;68.83
19526;BME280;9907;42.676;26.348;2023-12-20T07:57:21;98920.78;;;9.49;68.66
19526;BME280;9907;42.676;26.348;2023-12-20T07:59:47;98912.22;;;9.55;69.39
19526;BME280;9907;42.676;26.348;2023-12-20T08:02:12;98914.19;;;9.53;68.83
19526;BME280;9907;42.676;26.348;2023-12-20T08:04:38;98915.34;;;9.60;68.58
19526;BME280;9907;42.676;26.348;2023-12-20T08:07:04;98916.16;;;9.61;68.52
19526;BME280;9907;42.676;26.348;2023-12-20T08:09:29;98917.16;;;9.60;67.89
19526;BME280;9907;42.676;26.348;2023-12-20T08:11:55;98919.59;;;9.72;67.85
19526;BME280;9907;42.676;26.348;2023-12-20T08:14:21;98915.56;;;9.88;66.85
19526;BME280;9907;42.676;26.348;2023-12-20T08:16:46;98905.28;;;9.83;66.99
19526;BME280;9907;42.676;26.348;2023-12-20T08:19:12;98907.44;;;9.99;66.99
19526;BME280;9907;42.676;26.348;2023-12-20T08:21:37;98905.38;;;10.12;66.53
19526;BME280;9907;42.676;26.348;2023-12-20T08:24:03;98904.75;;;10.19;65.76
19526;BME280;9907;42.676;26.348;2023-12-20T08:26:28;98897.53;;;10.20;65.82
19526;BME280;9907;42.676;26.348;2023-12-20T08:28:54;98896.16;;;10.16;65.87
19526;BME280;9907;42.676;26.348;2023-12-20T08:31:19;98888.56;;;10.21;65.01
19526;BME280;9907;42.676;26.348;2023-12-20T08:33:47;98888.03;;;10.27;65.49
19526;BME280;9907;42.676;26.348;2023-12-20T08:36:13;98887.34;;;10.35;64.72
19526;BME280;9907;42.676;26.348;2023-12-20T08:38:39;98874.97;;;10.34;64.52
19526;BME280;9907;42.676;26.348;2023-12-20T08:41:06;98871.28;;;10.25;64.93
19526;BME280;9907;42.676;26.348;2023-12-20T08:43:33;98858.78;;;10.35;64.33
19526;BME280;9907;42.676;26.348;2023-12-20T08:45:59;98859.09;;;10.42;64.29
19526;BME280;9907;42.676;26.348;2023-12-20T08:48:25;98858.66;;;10.46;64.32
19526;BME280;9907;42.676;26.348;2023-12-20T08:50:50;98850.09;;;10.52;63.85
19526;BME280;9907;42.676;26.348;2023-12-20T08:53:18;98840.81;;;10.56;63.82
19526;BME280;9907;42.676;26.348;2023-12-20T08:55:44;98828.41;;;10.46;63.86
19526;BME280;9907;42.676;26.348;2023-12-20T08:58:10;98823.09;;;10.55;63.64
19526;BME280;9907;42.676;26.348;2023-12-20T09:00:35;98814.97;;;10.38;63.42
19526;BME280;9907;42.676;26.348;2023-12-20T09:03:01;98817.47;;;10.58;63.82
19526;BME280;9907;42.676;26.348;2023-12-20T09:05:28;98799.88;;;10.65;63.96
19526;BME280;9907;42.676;26.348;2023-12-20T09:07:53;98802.53;;;10.65;63.94
19526;BME280;9907;42.676;26.348;2023-12-20T09:10:19;98795.94;;;10.69;64.03
19526;BME280;9907;42.676;26.348;2023-12-20T09:12:49;98792.41;;;10.79;64.52
19526;BME280;9907;42.676;26.348;2023-12-20T09:15:14;98793.22;;;10.79;63.91
19526;BME280;9907;42.676;26.348;2023-12-20T09:17:40;98790.97;;;10.84;64.76
19526;BME280;9907;42.676;26.348;2023-12-20T09:20:07;98794.06;;;10.89;64.92
19526;BME280;9907;42.676;26.348;2023-12-20T09:22:34;98783.63;;;10.96;64.82
19526;BME280;9907;42.676;26.348;2023-12-20T09:24:59;98784.16;;;10.99;64.64
19526;BME280;9907;42.676;26.348;2023-12-20T09:27:25;98781.63;;;10.98;65.04
19526;BME280;9907;42.676;26.348;2023-12-20T09:29:51;98771.09;;;10.96;64.60
19526;BME280;9907;42.676;26.348;2023-12-20T09:32:16;98762.66;;;11.01;64.74
19526;BME280;9907;42.676;26.348;2023-12-20T09:34:42;98757.69;;;11.06;64.66
19526;BME280;9907;42.676;26.348;2023-12-20T09:37:08;98750.22;;;11.09;64.80
19526;BME280;9907;42.676;26.348;2023-12-20T09:39:33;98740.06;;;11.13;64.86
19526;BME280;9907;42.676;26.348;2023-12-20T09:42:05;98735.44;;;11.15;64.51
19526;BME280;9907;42.676;26.348;2023-12-20T09:44:31;98736.84;;;11.19;64.83
19526;BME280;9907;42.676;26.348;2023-12-20T09:46:58;98731.47;;;11.19;64.62
19526;BME280;9907;42.676;26.348;2023-12-20T09:49:25;98724.44;;;11.18;64.54
19526;BME280;9907;42.676;26.348;2023-12-20T09:51:54;98724.31;;;11.19;64.23
19526;BME280;9907;42.676;26.348;2023-12-20T09:54:20;98720.19;;;11.25;64.03
19526;BME280;9907;42.676;26.348;2023-12-20T09:56:46;98720.59;;;11.30;64.49
19526;BME280;9907;42.676;26.348;2023-12-20T09:59:13;98715.06;;;11.32;64.17
19526;BME280;9907;42.676;26.348;2023-12-20T10:01:39;98703.53;;;11.31;64.11
19526;BME280;9907;42.676;26.348;2023-12-20T10:04:07;98708.44;;;11.36;64.36
19526;BME280;9907;42.676;26.348;2023-12-20T10:06:37;98703.25;;;11.34;64.16
19526;BME280;9907;42.676;26.348;2023-12-20T10:09:03;98696.22;;;11.33;64.48
19526;BME280;9907;42.676;26.348;2023-12-20T10:11:29;98693.78;;;11.40;64.89
19526;BME280;9907;42.676;26.348;2023-12-20T10:14:01;98691.63;;;11.43;64.98
19526;BME280;9907;42.676;26.348;2023-12-20T10:16:27;98691.34;;;11.46;65.22
19526;BME280;9907;42.676;26.348;2023-12-20T10:18:56;98693.47;;;11.43;64.80
19526;BME280;9907;42.676;26.348;2023-12-20T10:21:25;98685.00;;;11.47;64.73
19526;BME280;9907;42.676;26.348;2023-12-20T10:23:52;98681.16;;;11.50;64.51
19526;BME280;9907;42.676;26.348;2023-12-20T10:26:22;98669.56;;;11.59;65.17
19526;BME280;9907;42.676;26.348;2023-12-20T10:28:56;98664.06;;;11.60;64.62
19526;BME280;9907;42.676;26.348;2023-12-20T10:31:33;98658.03;;;11.58;64.48
19526;BME280;9907;42.676;26.348;2023-12-20T10:33:59;98658.69;;;11.60;64.83
19526;BME280;9907;42.676;26.348;2023-12-20T10:36:26;98653.22;;;11.62;64.69
19526;BME280;9907;42.676;26.348;2023-12-20T10:38:54;98644.34;;;11.61;64.18
19526;BME280;9907;42.676;26.348;2023-12-20T10:41:33;98643.88;;;11.66;64.95
19526;BME280;9907;42.676;26.348;2023-12-20T10:44:02;98634.03;;;11.66;64.34
19526;BME280;9907;42.676;26.348;2023-12-20T10:46:29;98632.66;;;11.62;64.33
19526;BME280;9907;42.676;26.348;2023-12-20T10:48:56;98630.66;;;11.64;64.64
19526;BME280;9907;42.676;26.348;2023-12-20T10:51:23;98622.47;;;11.66;64.75
19526;BME280;9907;42.676;26.348;2023-12-20T10:53:50;98611.78;;;11.66;64.32
19526;BME280;9907;42.676;26.348;2023-12-20T10:56:19;98617.28;;;11.64;63.01
19526;BME280;9907;42.676;26.348;2023-12-20T10:58:46;98610.88;;;11.57;64.18
19526;BME280;9907;42.676;26.348;2023-12-20T11:01:14;98611.56;;;11.59;63.27
19526;BME280;9907;42.676;26.348;2023-12-20T11:03:51;98606.88;;;11.61;63.64
19526;BME280;9907;42.676;26.348;2023-12-20T11:06:36;98608.56;;;11.62;62.98
19526;BME280;9907;42.676;26.348;2023-12-20T11:09:34;98598.03;;;11.61;62.22
19526;BME280;9907;42.676;26.348;2023-12-20T11:12:13;98603.91;;;11.64;62.77
19526;BME280;9907;42.676;26.348;2023-12-20T11:14:50;98604.28;;;11.69;62.50
19526;BME280;9907;42.676;26.348;2023-12-20T11:17:16;98592.59;;;11.70;62.81
19526;BME280;9907;42.676;26.348;2023-12-20T11:22:24;98593.59;;;11.69;63.28
19526;BME280;9907;42.676;26.348;2023-12-20T11:24:51;98588.13;;;11.71;63.25
19526;BME280;9907;42.676;26.348;2023-12-20T11:27:18;98591.63;;;11.71;63.85
19526;BME280;9907;42.676;26.348;2023-12-20T11:29:51;98587.94;;;11.73;63.46
19526;BME280;9907;42.676;26.348;2023-12-20T11:37:38;98568.38;;;11.72;63.90
19526;BME280;9907;42.676;26.348;2023-12-20T11:40:11;98562.19;;;11.71;63.01
19526;BME280;9907;42.676;26.348;2023-12-20T11:42:39;98548.94;;;11.70;63.58
19526;BME280;9907;42.676;26.348;2023-12-20T11:45:05;98546.84;;;11.74;63.38
19526;BME280;9907;42.676;26.348;2023-12-20T11:47:33;98538.09;;;11.71;63.74
19526;BME280;9907;42.676;26.348;2023-12-20T11:50:00;98533.75;;;11.70;63.39
19526;BME280;9907;42.676;26.348;2023-12-20T11:52:28;98527.69;;;11.68;63.36
19526;BME280;9907;42.676;26.348;2023-12-20T11:54:54;98527.69;;;11.68;62.51
19526;BME280;9907;42.676;26.348;2023-12-20T11:57:19;98521.66;;;11.66;62.86
19526;BME280;9907;42.676;26.348;2023-12-20T11:59:45;98516.63;;;11.63;62.31
19526;BME280;9907;42.676;26.348;2023-12-20T12:02:11;98508.44;;;11.65;62.01
19526;BME280;9907;42.676;26.348;2023-12-20T12:04:37;98506.59;;;11.65;61.75
19526;BME280;9907;42.676;26.348;2023-12-20T12:07:02;98500.41;;;11.65;61.96
19526;BME280;9907;42.676;26.348;2023-12-20T12:09:28;98504.91;;;11.64;62.40
19526;BME280;9907;42.676;26.348;2023-12-20T12:11:54;98497.91;;;11.63;62.16
19526;BME280;9907;42.676;26.348;2023-12-20T12:14:20;98498.38;;;11.59;61.66
19526;BME280;9907;42.676;26.348;2023-12-20T12:16:46;98498.06;;;11.62;61.86
19526;BME280;9907;42.676;26.348;2023-12-20T12:19:25;98488.53;;;11.59;61.94
19526;BME280;9907;42.676;26.348;2023-12-20T12:21:51;98495.69;;;11.59;62.29
19526;BME280;9907;42.676;26.348;2023-12-20T12:24:29;98488.84;;;11.56;62.24
19526;BME280;9907;42.676;26.348;2023-12-20T12:26:57;98475.28;;;11.58;62.94
19526;BME280;9907;42.676;26.348;2023-12-20T12:29:22;98469.28;;;11.56;62.71
19526;BME280;9907;42.676;26.348;2023-12-20T12:31:50;98479.28;;;11.54;63.10
19526;BME280;9907;42.676;26.348;2023-12-20T12:34:15;98474.75;;;11.54;62.69
19526;BME280;9907;42.676;26.348;2023-12-20T12:36:41;98464.91;;;11.55;62.48
19526;BME280;9907;42.676;26.348;2023-12-20T12:39:07;98462.38;;;11.53;62.77
19526;BME280;9907;42.676;26.348;2023-12-20T12:41:32;98461.38;;;11.54;63.15
19526;BME280;9907;42.676;26.348;2023-12-20T12:43:57;98463.09;;;11.55;63.00
19526;BME280;9907;42.676;26.348;2023-12-20T12:46:23;98468.75;;;11.52;62.68
19526;BME280;9907;42.676;26.348;2023-12-20T12:48:49;98460.41;;;11.55;63.03
19526;BME280;9907;42.676;26.348;2023-12-20T12:51:15;98449.84;;;11.54;63.05
19526;BME280;9907;42.676;26.348;2023-12-20T12:53:41;98447.34;;;11.52;63.10
19526;BME280;9907;42.676;26.348;2023-12-20T12:56:07;98437.97;;;11.48;63.03
19526;BME280;9907;42.676;26.348;2023-12-20T12:58:33;98445.16;;;11.48;62.84
19526;BME280;9907;42.676;26.348;2023-12-20T13:00:58;98439.28;;;11.44;62.23
19526;BME280;9907;42.676;26.348;2023-12-20T13:03:24;98444.63;;;11.44;62.47
19526;BME280;9907;42.676;26.348;2023-12-20T13:05:50;98436.22;;;11.39;62.21
19526;BME280;9907;42.676;26.348;2023-12-20T13:08:15;98432.56;;;11.40;61.92
19526;BME280;9907;42.676;26.348;2023-12-20T13:10:41;98439.22;;;11.36;61.22
19526;BME280;9907;42.676;26.348;2023-12-20T13:13:07;98432.88;;;11.37;61.96
19526;BME280;9907;42.676;26.348;2023-12-20T13:15:32;98435.03;;;11.34;61.96
19526;BME280;9907;42.676;26.348;2023-12-20T13:17:58;98431.34;;;11.35;62.08
19526;BME280;9907;42.676;26.348;2023-12-20T13:20:23;98436.84;;;11.33;61.99
19526;BME280;9907;42.676;26.348;2023-12-20T13:22:49;98431.97;;;11.29;61.96
19526;BME280;9907;42.676;26.348;2023-12-20T13:25:14;98424.94;;;11.28;61.80
19526;BME280;9907;42.676;26.348;2023-12-20T13:27:41;98421.59;;;11.26;62.19
19526;BME280;9907;42.676;26.348;2023-12-20T13:30:06;98426.41;;;11.22;62.56
19526;BME280;9907;42.676;26.348;2023-12-20T13:32:32;98424.91;;;11.19;61.99
19526;BME280;9907;42.676;26.348;2023-12-20T13:34:58;98424.06;;;11.19;62.44
19526;BME280;9907;42.676;26.348;2023-12-20T13:37:23;98424.53;;;11.14;62.71
19526;BME280;9907;42.676;26.348;2023-12-20T13:39:49;98423.28;;;11.09;63.13
19526;BME280;9907;42.676;26.348;2023-12-20T13:42:14;98428.94;;;11.06;62.84
19526;BME280;9907;42.676;26.348;2023-12-20T13:44:40;98432.88;;;10.94;63.52
19526;BME280;9907;42.676;26.348;2023-12-20T13:47:05;98429.81;;;10.89;64.34
19526;BME280;9907;42.676;26.348;2023-12-20T13:49:31;98430.50;;;10.73;63.62
19526;BME280;9907;42.676;26.348;2023-12-20T13:51:57;98421.19;;;10.77;63.97
19526;BME280;9907;42.676;26.348;2023-12-20T13:54:24;98423.03;;;10.77;63.54
19526;BME280;9907;42.676;26.348;2023-12-20T13:56:49;98420.34;;;10.77;63.38
19526;BME280;9907;42.676;26.348;2023-12-20T13:59:15;98417.31;;;10.71;63.63
19526;BME280;9907;42.676;26.348;2023-12-20T14:01:41;98416.94;;;10.66;63.24
19526;BME280;9907;42.676;26.348;2023-12-20T14:04:06;98421.34;;;10.58;63.30
19526;BME280;9907;42.676;26.348;2023-12-20T14:06:32;98424.19;;;10.56;63.39
19526;BME280;9907;42.676;26.348;2023-12-20T14:08:58;98420.38;;;10.59;63.35
19526;BME280;9907;42.676;26.348;2023-12-20T14:11:28;98420.81;;;10.54;63.46
19526;BME280;9907;42.676;26.348;2023-12-20T14:13:53;98412.72;;;10.46;63.30
19526;BME280;9907;42.676;26.348;2023-12-20T14:16:25;98412.56;;;10.30;63.98
19526;BME280;9907;42.676;26.348;2023-12-20T14:18:51;98404.16;;;10.25;64.34
19526;BME280;9907;42.676;26.348;2023-12-20T14:21:22;98406.94;;;10.33;64.28
19526;BME280;9907;42.676;26.348;2023-12-20T14:23:49;98403.53;;;10.31;64.12
19526;BME280;9907;42.676;26.348;2023-12-20T14:26:14;98395.63;;;10.21;64.24
19526;BME280;9907;42.676;26.348;2023-12-20T14:28:44;98397.31;;;10.13;64.02
19526;BME280;9907;42.676;26.348;2023-12-20T14:31:10;98391.44;;;10.09;64.93
19526;BME280;9907;42.676;26.348;2023-12-20T14:33:36;98399.75;;;10.06;64.88
19526;BME280;9907;42.676;26.348;2023-12-20T14:36:04;98399.81;;;9.97;65.11
19526;BME280;9907;42.676;26.348;2023-12-20T14:38:31;98393.88;;;10.03;65.18
19526;BME280;9907;42.676;26.348;2023-12-20T14:40:57;98394.47;;;9.97;65.61
19526;BME280;9907;42.676;26.348;2023-12-20T14:43:22;98399.28;;;9.93;66.05
19526;BME280;9907;42.676;26.348;2023-12-20T14:45:48;98398.47;;;9.83;66.01
19526;BME280;9907;42.676;26.348;2023-12-20T14:48:14;98401.97;;;9.84;66.27
19526;BME280;9907;42.676;26.348;2023-12-20T14:50:39;98400.75;;;9.78;65.94
19526;BME280;9907;42.676;26.348;2023-12-20T14:53:08;98394.16;;;9.72;66.05
19526;BME280;9907;42.676;26.348;2023-12-20T14:55:33;98400.41;;;9.63;66.08
19526;BME280;9907;42.676;26.348;2023-12-20T14:57:59;98401.25;;;9.64;66.74
19526;BME280;9907;42.676;26.348;2023-12-20T15:00:26;98401.78;;;9.67;66.65
19526;BME280;9907;42.676;26.348;2023-12-20T15:02:51;98406.13;;;9.68;67.02
19526;BME280;9907;42.676;26.348;2023-12-20T15:07:57;98418.09;;;9.64;66.90
19526;BME280;9907;42.676;26.348;2023-12-20T15:31:04;98395.72;;;9.38;68.49
19526;BME280;9907;42.676;26.348;2023-12-20T15:33:30;98405.28;;;9.31;68.51
19526;BME280;9907;42.676;26.348;2023-12-20T15:35:56;98396.88;;;9.26;69.11
19526;BME280;9907;42.676;26.348;2023-12-20T15:38:21;98404.63;;;9.19;69.57
19526;BME280;9907;42.676;26.348;2023-12-20T15:40:47;98399.16;;;9.11;69.47
19526;BME280;9907;42.676;26.348;2023-12-20T15:43:13;98402.13;;;9.08;69.51
19526;BME280;9907;42.676;26.348;2023-12-20T15:45:39;98398.47;;;9.00;69.97
19526;BME280;9907;42.676;26.348;2023-12-20T15:48:05;98399.16;;;9.02;69.87
19526;BME280;9907;42.676;26.348;2023-12-20T15:50:31;98400.72;;;8.95;70.35
19526;BME280;9907;42.676;26.348;2023-12-20T15:52:56;98391.16;;;9.02;70.48
19526;BME280;9907;42.676;26.348;2023-12-20T15:55:21;98396.06;;;9.06;70.33
19526;BME280;9907;42.676;26.348;2023-12-20T15:57:47;98387.25;;;9.06;70.36
19526;BME280;9907;42.676;26.348;2023-12-20T16:00:13;98382.38;;;9.01;70.59
19526;BME280;9907;42.676;26.348;2023-12-20T16:02:38;98384.47;;;8.98;70.67
19526;BME280;9907;42.676;26.348;2023-12-20T16:05:04;98382.66;;;8.89;70.51
19526;BME280;9907;42.676;26.348;2023-12-20T16:07:29;98387.00;;;8.80;70.72
19526;BME280;9907;42.676;26.348;2023-12-20T16:09:55;98392.88;;;8.84;70.25
19526;BME280;9907;42.676;26.348;2023-12-20T16:12:21;98393.47;;;8.77;71.05
19526;BME280;9907;42.676;26.348;2023-12-20T16:14:47;98394.88;;;8.82;70.69
19526;BME280;9907;42.676;26.348;2023-12-20T16:17:12;98390.13;;;8.75;70.95
19526;BME280;9907;42.676;26.348;2023-12-20T16:19:37;98396.16;;;8.68;71.21
19526;BME280;9907;42.676;26.348;2023-12-20T16:22:03;98399.63;;;8.68;71.02
19526;BME280;9907;42.676;26.348;2023-12-20T16:24:29;98391.38;;;8.71;71.06
19526;BME280;9907;42.676;26.348;2023-12-20T16:26:56;98382.38;;;8.72;70.75
19526;BME280;9907;42.676;26.348;2023-12-20T17:01:50;98380.72;;;8.43;69.57
19526;BME280;9907;42.676;26.348;2023-12-20T17:04:16;98379.75;;;8.44;68.74
19526;BME280;9907;42.676;26.348;2023-12-20T17:06:42;98382.13;;;8.37;68.86
19526;BME280;9907;42.676;26.348;2023-12-20T17:09:07;98384.78;;;8.47;69.45
19526;BME280;9907;42.676;26.348;2023-12-20T17:11:34;98381.16;;;8.48;69.23
19526;BME280;9907;42.676;26.348;2023-12-20T17:13:59;98376.94;;;8.45;69.15
19526;BME280;9907;42.676;26.348;2023-12-20T17:16:26;98384.38;;;8.42;69.08
19526;BME280;9907;42.676;26.348;2023-12-20T17:18:52;98384.78;;;8.47;68.46
19526;BME280;9907;42.676;26.348;2023-12-20T17:21:18;98385.34;;;8.50;68.11
19526;BME280;9907;42.676;26.348;2023-12-20T17:23:44;98380.72;;;8.43;68.10
19526;BME280;9907;42.676;26.348;2023-12-20T17:26:11;98377.25;;;8.42;67.81
19526;BME280;9907;42.676;26.348;2023-12-20T17:28:37;98379.19;;;8.30;69.02
19526;BME280;9907;42.676;26.348;2023-12-20T17:31:12;98373.81;;;8.21;68.72
19526;BME280;9907;42.676;26.348;2023-12-20T17:33:38;98381.09;;;8.19;68.82
19526;BME280;9907;42.676;26.348;2023-12-20T17:36:04;98380.81;;;8.22;69.20
19526;BME280;9907;42.676;26.348;2023-12-20T17:38:30;98374.09;;;8.18;68.89
19526;BME280;9907;42.676;26.348;2023-12-20T17:40:59;98375.63;;;8.11;69.25
19526;BME280;9907;42.676;26.348;2023-12-20T17:43:26;98364.00;;;8.21;69.93
19526;BME280;9907;42.676;26.348;2023-12-20T17:45:51;98371.03;;;8.13;69.83
19526;BME280;9907;42.676;26.348;2023-12-20T17:48:17;98370.31;;;8.11;69.82
19526;BME280;9907;42.676;26.348;2023-12-20T17:50:47;98367.94;;;8.17;70.55
19526;BME280;9907;42.676;26.348;2023-12-20T17:53:15;98366.78;;;8.10;70.14
19526;BME280;9907;42.676;26.348;2023-12-20T17:55:40;98372.00;;;8.12;70.47
19526;BME280;9907;42.676;26.348;2023-12-20T17:58:06;98372.00;;;8.21;71.08
19526;BME280;9907;42.676;26.348;2023-12-20T18:01:03;98368.38;;;8.13;71.53
19526;BME280;9907;42.676;26.348;2023-12-20T18:04:48;98362.91;;;8.24;72.55
19526;BME280;9907;42.676;26.348;2023-12-20T18:10:49;98364.28;;;8.09;73.47
19526;BME280;9907;42.676;26.348;2023-12-20T18:13:14;98356.66;;;8.35;76.59